createdAt,value
2018-08-13T00:01:45.823Z,1.70
2018-08-13T00:04:15.167Z,1.40
2018-08-13T00:06:44.496Z,2.27
2018-08-13T00:09:17.913Z,1.90
2018-08-13T00:11:47.696Z,1.60
2018-08-13T00:14:16.622Z,2.07
2018-08-13T00:16:45.718Z,1.80
2018-08-13T00:19:14.911Z,1.70
2018-08-13T00:21:43.984Z,1.50
2018-08-13T00:24:13.213Z,1.90
2018-08-13T00:26:42.413Z,1.90
2018-08-13T00:29:11.583Z,1.73
2018-08-13T00:31:40.750Z,1.90
2018-08-13T00:34:14.299Z,1.83
2018-08-13T00:36:45.867Z,1.60
2018-08-13T00:39:16.096Z,1.87
2018-08-13T00:41:45.404Z,1.90
2018-08-13T00:44:14.572Z,1.83
2018-08-13T00:46:43.765Z,1.90
2018-08-13T00:49:13.896Z,2.13
2018-08-13T00:51:43.103Z,2.00
2018-08-13T00:54:12.435Z,1.73
2018-08-13T00:56:41.635Z,1.83
2018-08-13T00:59:10.937Z,1.80
2018-08-13T01:01:40.215Z,2.40
2018-08-13T01:04:09.433Z,1.97
2018-08-13T01:06:38.625Z,2.10
2018-08-13T01:09:09.548Z,2.10
2018-08-13T01:11:38.759Z,2.27
2018-08-13T01:14:08.314Z,2.27
2018-08-13T01:16:37.401Z,2.00
2018-08-13T01:19:06.557Z,2.03
2018-08-13T01:21:35.849Z,1.83
2018-08-13T01:24:05.148Z,2.07
2018-08-13T01:26:35.132Z,1.90
2018-08-13T01:29:04.540Z,1.73
2018-08-13T01:31:33.640Z,1.77
2018-08-13T01:34:02.624Z,2.00
2018-08-13T01:36:31.942Z,1.87
2018-08-13T01:39:01.174Z,1.80
2018-08-13T01:41:30.333Z,1.77
2018-08-13T01:43:59.618Z,1.93
2018-08-13T01:46:28.914Z,1.90
2018-08-13T01:48:58.799Z,1.77
2018-08-13T01:51:28.241Z,1.80
2018-08-13T01:53:57.553Z,1.93
2018-08-13T01:56:26.771Z,2.03
2018-08-13T01:58:55.874Z,1.67
2018-08-13T02:01:25.193Z,1.90
2018-08-13T02:03:54.385Z,1.93
2018-08-13T02:06:23.598Z,1.83
2018-08-13T02:08:52.760Z,1.80
2018-08-13T02:11:22.044Z,1.70
2018-08-13T02:13:51.364Z,1.70
2018-08-13T02:16:20.578Z,2.00
2018-08-13T02:18:49.755Z,1.93
2018-08-13T02:21:18.892Z,1.87
2018-08-13T02:23:48.187Z,1.93
2018-08-13T02:26:17.507Z,2.10
2018-08-13T02:28:46.777Z,1.77
2018-08-13T02:31:16.002Z,2.50
2018-08-13T02:33:45.198Z,2.03
2018-08-13T02:36:14.375Z,2.27
2018-08-13T02:38:43.691Z,2.27
2018-08-13T02:41:12.912Z,2.03
2018-08-13T02:43:42.113Z,1.93
2018-08-13T02:46:11.301Z,1.90
2018-08-13T02:48:42.330Z,1.80
2018-08-13T02:51:11.559Z,1.80
2018-08-13T02:53:42.063Z,2.07
2018-08-13T02:56:11.173Z,2.27
2018-08-13T02:58:41.863Z,2.10
2018-08-13T03:01:11.141Z,2.00
2018-08-13T03:03:40.333Z,1.93
2018-08-13T03:06:12.452Z,2.13
2018-08-13T03:08:41.709Z,1.87
2018-08-13T03:11:10.773Z,2.23
2018-08-13T03:13:39.898Z,1.90
2018-08-13T03:16:09.077Z,2.00
2018-08-13T03:18:38.198Z,1.97
2018-08-13T03:21:07.807Z,1.80
2018-08-13T03:23:36.932Z,1.97
2018-08-13T03:26:06.714Z,2.10
2018-08-13T03:28:35.997Z,1.90
2018-08-13T03:31:05.292Z,1.90
2018-08-13T03:33:34.480Z,2.07
2018-08-13T03:36:03.541Z,2.00
2018-08-13T03:38:32.630Z,2.37
2018-08-13T03:41:03.647Z,1.83
2018-08-13T03:43:33.085Z,2.47
2018-08-13T03:46:02.393Z,1.67
2018-08-13T03:48:31.610Z,1.90
2018-08-13T03:51:00.706Z,2.00
2018-08-13T03:53:29.862Z,2.17
2018-08-13T03:55:59.198Z,1.97
2018-08-13T03:58:28.275Z,2.10
2018-08-13T04:00:57.464Z,1.97
2018-08-13T04:03:26.607Z,1.93
2018-08-13T04:05:55.641Z,2.00
2018-08-13T04:08:24.705Z,1.90
2018-08-13T04:10:53.888Z,2.00
2018-08-13T04:13:23.043Z,1.90
2018-08-13T04:15:52.189Z,2.80
2018-08-13T04:18:21.383Z,2.47
2018-08-13T04:20:50.487Z,1.67
2018-08-13T04:23:19.687Z,1.90
2018-08-13T04:25:49.395Z,1.77
2018-08-13T04:28:19.243Z,2.27
2018-08-13T04:30:48.285Z,2.40
2018-08-13T04:33:17.406Z,1.70
2018-08-13T04:35:46.599Z,2.27
2018-08-13T04:38:15.730Z,2.03
2018-08-13T04:40:44.797Z,2.20
2018-08-13T04:43:13.933Z,2.10
2018-08-13T04:45:43.274Z,2.23
2018-08-13T04:48:12.507Z,2.17
2018-08-13T04:50:41.942Z,2.03
2018-08-13T04:53:10.950Z,1.80
2018-08-13T04:55:40.147Z,2.10
2018-08-13T04:58:09.142Z,2.43
2018-08-13T05:00:38.219Z,1.80
2018-08-13T05:03:07.555Z,2.10
2018-08-13T05:05:36.594Z,2.20
2018-08-13T05:08:05.750Z,2.53
2018-08-13T05:10:35.154Z,2.07
2018-08-13T05:13:04.341Z,2.07
2018-08-13T05:15:33.465Z,1.90
2018-08-13T05:18:03.053Z,2.00
2018-08-13T05:20:32.170Z,2.13
2018-08-13T05:23:01.533Z,2.47
2018-08-13T05:25:30.775Z,2.20
2018-08-13T05:27:59.962Z,2.20
2018-08-13T05:30:29.831Z,3.03
2018-08-13T05:32:59.192Z,3.40
2018-08-13T05:35:28.509Z,2.60
2018-08-13T05:37:57.592Z,3.07
2018-08-13T05:40:26.767Z,3.50
2018-08-13T05:42:56.091Z,2.50
2018-08-13T05:45:25.203Z,3.17
2018-08-13T05:47:54.507Z,3.27
2018-08-13T05:50:23.672Z,3.60
2018-08-13T05:52:52.877Z,3.87
2018-08-13T05:55:22.240Z,4.27
2018-08-13T05:57:51.319Z,3.97
2018-08-13T06:00:20.585Z,4.27
2018-08-13T06:02:49.785Z,4.03
2018-08-13T06:05:19.092Z,4.57
2018-08-13T06:07:48.240Z,4.70
2018-08-13T06:10:17.194Z,4.80
2018-08-13T06:12:46.531Z,4.23
2018-08-13T06:15:15.814Z,4.23
2018-08-13T06:17:44.948Z,5.00
2018-08-13T06:20:14.830Z,5.17
2018-08-13T06:22:44.367Z,4.07
2018-08-13T06:25:14.325Z,4.63
2018-08-13T06:27:43.499Z,5.13
2018-08-13T06:30:14.656Z,4.37
2018-08-13T06:32:44.291Z,4.03
2018-08-13T06:35:14.190Z,3.50
2018-08-13T06:37:44.026Z,3.70
2018-08-13T06:40:13.507Z,3.20
2018-08-13T06:42:42.806Z,3.67
2018-08-13T06:45:12.269Z,3.57
2018-08-13T06:47:41.744Z,4.27
2018-08-13T06:50:12.771Z,3.70
2018-08-13T06:52:43.165Z,4.17
2018-08-13T06:55:12.313Z,4.30
2018-08-13T06:57:41.551Z,4.20
2018-08-13T07:00:13.448Z,3.80
2018-08-13T07:02:42.626Z,3.30
2018-08-13T07:05:12.198Z,3.40
2018-08-13T07:07:41.808Z,4.00
2018-08-13T07:10:12.199Z,3.33
2018-08-13T07:12:43.264Z,3.30
2018-08-13T07:15:13.444Z,3.10
2018-08-13T07:17:42.559Z,3.47
2018-08-13T07:20:15.332Z,3.07
2018-08-13T07:22:44.973Z,3.03
2018-08-13T07:25:14.306Z,3.37
2018-08-13T07:27:43.689Z,3.47
2018-08-13T07:30:14.037Z,3.40
2018-08-13T07:32:43.840Z,2.77
2018-08-13T07:35:13.186Z,3.00
2018-08-13T07:37:42.531Z,2.90
2018-08-13T07:40:13.814Z,2.87
2018-08-13T07:42:44.540Z,3.10
2018-08-13T07:45:13.802Z,3.37
2018-08-13T07:47:43.198Z,3.23
2018-08-13T07:50:15.265Z,3.97
2018-08-13T07:52:44.466Z,2.90
2018-08-13T07:55:13.936Z,3.10
2018-08-13T07:57:43.168Z,2.90
2018-08-13T08:00:14.813Z,3.23
2018-08-13T08:02:43.821Z,3.67
2018-08-13T08:05:13.030Z,3.27
2018-08-13T08:07:42.448Z,3.43
2018-08-13T08:10:13.638Z,3.43
2018-08-13T08:12:43.099Z,3.30
2018-08-13T08:15:14.401Z,3.53
2018-08-13T08:17:44.089Z,3.43
2018-08-13T08:20:13.375Z,3.23
2018-08-13T08:22:42.660Z,2.77
2018-08-13T08:25:16.229Z,3.13
2018-08-13T08:27:45.527Z,2.50
2018-08-13T08:30:14.985Z,2.40
2018-08-13T08:32:45.203Z,2.40
2018-08-13T08:35:15.637Z,2.30
2018-08-13T08:37:45.106Z,2.83
2018-08-13T08:40:17.342Z,2.57
2018-08-13T08:42:47.535Z,2.87
2018-08-13T08:45:24.817Z,3.00
2018-08-13T08:47:54.557Z,2.53
2018-08-13T08:50:23.652Z,2.60
2018-08-13T08:52:53.145Z,2.37
2018-08-13T08:55:22.339Z,2.60
2018-08-13T08:57:51.741Z,2.30
2018-08-13T09:00:22.165Z,2.37
2018-08-13T09:02:51.975Z,2.40
2018-08-13T09:05:21.260Z,2.50
2018-08-13T09:07:50.274Z,2.07
2018-08-13T09:10:19.417Z,2.20
2018-08-13T09:12:48.476Z,1.97
2018-08-13T09:15:18.157Z,2.17
2018-08-13T09:17:59.126Z,1.90
2018-08-13T09:20:39.241Z,1.53
2018-08-13T09:23:19.587Z,1.93
2018-08-13T09:25:59.935Z,1.60
2018-08-13T09:28:39.984Z,1.60
2018-08-13T09:32:24.395Z,1.80
2018-08-13T09:35:06.298Z,1.80
2018-08-13T09:37:35.385Z,1.97
2018-08-13T09:40:05.462Z,1.47
2018-08-13T09:42:34.710Z,2.03
2018-08-13T09:45:05.620Z,1.73
2018-08-13T09:47:34.641Z,1.53
2018-08-13T09:50:04.117Z,1.53
2018-08-13T09:52:33.311Z,1.50
2018-08-13T09:55:02.424Z,1.60
2018-08-13T09:57:31.704Z,1.53
2018-08-13T10:00:00.774Z,1.70
2018-08-13T10:02:29.885Z,1.60
2018-08-13T10:04:59.114Z,2.83
2018-08-13T10:07:28.703Z,1.03
2018-08-13T10:09:57.948Z,1.47
2018-08-13T10:12:27.281Z,1.27
2018-08-13T10:14:56.376Z,1.43
2018-08-13T10:17:25.730Z,1.20
2018-08-13T10:19:54.856Z,1.30
2018-08-13T10:22:24.008Z,1.40
2018-08-13T10:24:53.171Z,1.50
2018-08-13T10:27:22.260Z,1.70
2018-08-13T10:29:52.118Z,1.53
2018-08-13T10:32:21.223Z,1.60
2018-08-13T10:34:50.288Z,1.20
2018-08-13T10:37:19.466Z,1.20
2018-08-13T10:39:49.146Z,1.60
2018-08-13T10:42:18.218Z,1.30
2018-08-13T10:44:47.359Z,1.40
2018-08-13T10:47:16.614Z,1.30
2018-08-13T10:49:45.712Z,1.30
2018-08-13T10:52:14.809Z,1.60
2018-08-13T10:54:44.423Z,1.30
2018-08-13T10:57:13.642Z,1.50
2018-08-13T10:59:43.007Z,1.57
2018-08-13T11:02:12.508Z,1.60
2018-08-13T11:04:41.738Z,1.60
2018-08-13T11:07:11.158Z,1.87
2018-08-13T11:09:40.442Z,1.47
2018-08-13T11:12:09.623Z,1.50
2018-08-13T11:14:38.874Z,1.60
2018-08-13T11:17:08.064Z,2.00
2018-08-13T11:19:37.286Z,1.80
2018-08-13T11:22:06.457Z,1.40
2018-08-13T11:24:35.766Z,1.73
2018-08-13T11:27:16.364Z,1.47
2018-08-13T11:29:54.605Z,1.70
2018-08-13T11:32:30.642Z,1.90
2018-08-13T11:35:00.101Z,1.80
2018-08-13T11:37:29.406Z,1.70
2018-08-13T11:39:58.501Z,2.10
2018-08-13T11:42:27.818Z,2.43
2018-08-13T11:44:57.141Z,1.80
2018-08-13T11:47:26.482Z,2.00
2018-08-13T11:49:55.508Z,2.07
2018-08-13T11:52:24.758Z,2.10
2018-08-13T11:54:54.079Z,2.00
2018-08-13T11:57:24.031Z,2.20
2018-08-13T11:59:53.269Z,2.40
2018-08-13T12:02:22.321Z,2.30
2018-08-13T12:04:51.718Z,2.40
2018-08-13T12:07:21.020Z,2.30
2018-08-13T12:09:50.324Z,2.00
2018-08-13T12:12:19.524Z,2.10
2018-08-13T12:14:48.682Z,2.37
2018-08-13T12:17:17.650Z,2.30
2018-08-13T12:19:46.850Z,2.43
2018-08-13T12:22:16.139Z,2.40
2018-08-13T12:24:45.326Z,2.97
2018-08-13T12:27:15.540Z,2.90
2018-08-13T12:29:44.724Z,2.60
2018-08-13T12:32:13.790Z,2.70
2018-08-13T12:34:43.370Z,2.47
2018-08-13T12:37:12.506Z,2.50
2018-08-13T12:39:41.803Z,2.60
2018-08-13T12:42:11.177Z,3.00
2018-08-13T12:44:40.374Z,2.70
2018-08-13T12:47:10.486Z,2.07
2018-08-13T12:49:39.839Z,2.60
2018-08-13T12:52:09.657Z,2.50
2018-08-13T12:54:38.652Z,2.50
2018-08-13T12:57:08.077Z,2.37
2018-08-13T12:59:37.143Z,2.50
2018-08-13T13:02:06.457Z,2.20
2018-08-13T13:04:35.388Z,2.30
2018-08-13T13:07:04.663Z,2.20
2018-08-13T13:09:33.864Z,2.50
2018-08-13T13:12:03.056Z,2.23
2018-08-13T13:14:33.356Z,2.20
2018-08-13T13:17:02.564Z,2.27
2018-08-13T13:19:31.846Z,2.23
2018-08-13T13:22:01.163Z,2.80
2018-08-13T13:24:30.614Z,2.43
2018-08-13T13:26:59.602Z,2.50
2018-08-13T13:29:28.915Z,2.80
2018-08-13T13:31:58.001Z,2.27
2018-08-13T13:34:27.347Z,2.20
2018-08-13T13:36:56.399Z,2.37
2018-08-13T13:39:25.723Z,2.63
2018-08-13T13:41:54.921Z,2.47
2018-08-13T13:44:23.980Z,2.50
2018-08-13T13:46:53.199Z,2.40
2018-08-13T13:49:22.396Z,2.47
2018-08-13T13:51:51.547Z,2.20
2018-08-13T13:54:20.674Z,3.07
2018-08-13T13:56:49.826Z,2.80
2018-08-13T13:59:19.241Z,2.57
2018-08-13T14:01:48.424Z,2.63
2018-08-13T14:04:17.628Z,2.40
2018-08-13T14:06:47.013Z,2.10
2018-08-13T14:09:16.145Z,2.20
2018-08-13T14:11:45.242Z,2.63
2018-08-13T14:14:14.382Z,2.60
2018-08-13T14:16:43.671Z,2.90
2018-08-13T14:19:12.734Z,2.80
2018-08-13T14:21:41.803Z,2.23
2018-08-13T14:24:11.127Z,2.80
2018-08-13T14:26:40.329Z,3.00
2018-08-13T14:29:09.849Z,2.27
2018-08-13T14:31:39.065Z,2.57
2018-08-13T14:34:08.308Z,2.10
2018-08-13T14:36:37.458Z,2.00
2018-08-13T14:39:09.564Z,2.10
2018-08-13T14:41:38.891Z,1.90
2018-08-13T14:44:08.100Z,2.40
2018-08-13T14:46:37.382Z,2.90
2018-08-13T14:49:06.633Z,3.33
2018-08-13T14:51:35.735Z,3.40
2018-08-13T14:54:04.844Z,3.07
2018-08-13T14:56:34.024Z,2.40
2018-08-13T14:59:03.156Z,2.00
2018-08-13T15:01:33.156Z,1.57
2018-08-13T15:04:02.351Z,1.33
2018-08-13T15:06:31.557Z,1.37
2018-08-13T15:09:00.717Z,1.83
2018-08-13T15:11:35.014Z,2.07
2018-08-13T15:14:04.586Z,2.10
2018-08-13T15:16:33.887Z,2.37
2018-08-13T15:19:03.259Z,4.00
2018-08-13T15:21:32.500Z,4.57
2018-08-13T15:24:01.706Z,5.40
2018-08-13T15:26:30.898Z,5.90
2018-08-13T15:29:00.161Z,6.40
2018-08-13T15:31:29.205Z,6.43
2018-08-13T15:33:58.161Z,6.23
2018-08-13T15:36:27.395Z,5.97
2018-08-13T15:38:56.773Z,7.40
2018-08-13T15:41:26.070Z,7.73
2018-08-13T15:43:55.226Z,8.37
2018-08-13T15:46:24.370Z,8.00
2018-08-13T15:48:53.565Z,9.20
2018-08-13T15:51:22.806Z,8.20
2018-08-13T15:53:52.129Z,8.47
2018-08-13T15:56:21.489Z,7.93
2018-08-13T15:58:50.746Z,8.00
2018-08-13T16:01:21.000Z,8.47
2018-08-13T16:03:50.191Z,7.90
2018-08-13T16:06:19.565Z,8.67
2018-08-13T16:08:48.852Z,7.90
2018-08-13T16:11:18.134Z,7.90
2018-08-13T16:13:47.333Z,7.43
2018-08-13T16:16:16.559Z,7.63
2018-08-13T16:18:45.653Z,6.83
2018-08-13T16:21:16.717Z,7.07
2018-08-13T16:23:45.761Z,6.67
2018-08-13T16:26:14.800Z,7.07
2018-08-13T16:28:44.014Z,6.67
2018-08-13T16:31:13.276Z,6.83
2018-08-13T16:33:42.579Z,7.83
2018-08-13T16:36:11.733Z,8.30
2018-08-13T16:38:41.038Z,7.43
2018-08-13T16:41:10.227Z,8.20
2018-08-13T16:43:39.431Z,8.60
2018-08-13T16:46:09.516Z,9.47
2018-08-13T16:48:39.496Z,10.07
2018-08-13T16:51:08.376Z,9.30
2018-08-13T16:53:37.268Z,9.47
2018-08-13T16:56:06.283Z,9.47
2018-08-13T16:58:35.245Z,9.93
2018-08-13T17:01:04.223Z,10.27
2018-08-13T17:03:33.445Z,10.43
2018-08-13T17:06:02.764Z,9.20
2018-08-13T17:08:31.834Z,9.20
2018-08-13T17:11:01.130Z,8.13
2018-08-13T17:13:30.232Z,8.03
2018-08-13T17:15:59.460Z,7.53
2018-08-13T17:18:28.733Z,6.87
2018-08-13T17:20:57.988Z,6.03
2018-08-13T17:23:27.215Z,5.30
2018-08-13T17:25:56.479Z,6.20
2018-08-13T17:28:25.721Z,5.33
2018-08-13T17:30:54.842Z,5.63
2018-08-13T17:33:23.770Z,5.40
2018-08-13T17:38:42.981Z,5.07
2018-08-13T17:41:11.638Z,5.50
2018-08-13T17:43:40.840Z,5.60
2018-08-13T17:46:11.029Z,4.83
2018-08-13T17:48:40.094Z,4.63
2018-08-13T17:51:08.803Z,3.83
2018-08-13T17:53:38.165Z,4.10
2018-08-13T17:56:07.205Z,4.93
2018-08-13T17:58:36.149Z,3.80
2018-08-13T18:01:05.172Z,3.63
2018-08-13T18:03:35.028Z,3.87
2018-08-13T18:06:04.741Z,3.97
2018-08-13T18:08:33.535Z,4.30
2018-08-13T18:11:02.522Z,4.23
2018-08-13T18:13:32.128Z,4.93
2018-08-13T18:16:01.007Z,5.00
2018-08-13T18:18:29.812Z,5.63
2018-08-13T18:20:58.900Z,5.00
2018-08-13T18:23:27.811Z,5.07
2018-08-13T18:25:56.627Z,5.23
2018-08-13T18:28:25.967Z,5.83
2018-08-13T18:30:55.731Z,5.40
2018-08-13T18:33:25.242Z,5.67
2018-08-13T18:35:54.183Z,6.03
2018-08-13T18:38:23.203Z,5.53
2018-08-13T18:40:52.137Z,5.87
2018-08-13T18:43:20.969Z,5.90
2018-08-13T18:45:50.127Z,5.63
2018-08-13T18:48:20.043Z,6.23
2018-08-13T18:50:48.914Z,7.03
2018-08-13T18:53:18.604Z,5.67
2018-08-13T18:55:48.167Z,6.10
2018-08-13T18:58:17.043Z,6.67
2018-08-13T19:00:52.956Z,6.57
2018-08-13T19:03:22.069Z,6.50
2018-08-13T19:05:51.094Z,7.03
2018-08-13T19:08:20.028Z,6.57
2018-08-13T19:10:49.967Z,6.23
2018-08-13T19:13:18.819Z,6.90
2018-08-13T19:15:47.662Z,8.13
2018-08-13T19:18:16.693Z,6.83
2018-08-13T19:20:45.486Z,6.80
2018-08-13T19:23:14.473Z,7.10
2018-08-13T19:25:43.412Z,7.57
2018-08-13T19:28:12.346Z,8.13
2018-08-13T19:30:41.428Z,8.37
2018-08-13T19:33:11.233Z,8.50
2018-08-13T19:35:40.102Z,8.33
2018-08-13T19:38:09.091Z,7.73
2018-08-13T19:40:38.048Z,7.67
2018-08-13T19:43:07.499Z,7.70
2018-08-13T19:45:36.953Z,6.97
2018-08-13T19:48:06.516Z,7.93
2018-08-13T19:50:35.241Z,6.77
2018-08-13T19:53:04.482Z,7.53
2018-08-13T19:55:33.203Z,6.90
2018-08-13T19:58:02.423Z,7.70
2018-08-13T20:00:31.564Z,7.47
2018-08-13T20:03:00.481Z,7.00
2018-08-13T20:05:29.578Z,7.47
2018-08-13T20:07:58.588Z,7.87
2018-08-13T20:10:27.564Z,7.77
2018-08-13T20:12:56.668Z,7.37
2018-08-13T20:15:25.510Z,7.97
2018-08-13T20:17:54.575Z,8.33
2018-08-13T20:20:23.801Z,8.03
2018-08-13T20:22:53.388Z,7.57
2018-08-13T20:25:22.768Z,7.43
2018-08-13T20:27:51.787Z,6.77
2018-08-13T20:30:22.329Z,7.37
2018-08-13T20:32:52.269Z,7.13
2018-08-13T20:35:21.310Z,7.13
2018-08-13T20:37:50.235Z,7.07
2018-08-13T20:40:20.086Z,6.83
2018-08-13T20:42:49.654Z,6.80
2018-08-13T20:45:19.823Z,7.70
2018-08-13T20:47:49.021Z,6.47
2018-08-13T20:50:20.815Z,7.00
2018-08-13T20:52:50.950Z,6.57
2018-08-13T20:55:22.550Z,6.20
2018-08-13T20:57:51.822Z,6.53
2018-08-13T21:00:24.164Z,6.53
2018-08-13T21:02:53.609Z,6.83
2018-08-13T21:05:23.842Z,7.27
2018-08-13T21:07:52.647Z,6.30
2018-08-13T21:10:22.925Z,7.37
2018-08-13T21:12:52.486Z,6.90
2018-08-13T21:15:21.243Z,6.47
2018-08-13T21:17:51.146Z,7.13
2018-08-13T21:20:22.033Z,7.87
2018-08-13T21:22:51.868Z,8.40
2018-08-13T21:25:20.828Z,7.37
2018-08-13T21:27:49.717Z,7.30
2018-08-13T21:30:19.608Z,7.63
2018-08-13T21:32:48.436Z,6.73
2018-08-13T21:35:20.210Z,7.30
2018-08-13T21:37:50.049Z,7.20
2018-08-13T21:40:18.755Z,7.20
2018-08-13T21:42:48.877Z,7.63
2018-08-13T21:45:17.689Z,7.83
2018-08-13T21:47:46.459Z,7.53
2018-08-13T21:50:18.444Z,8.27
2018-08-13T21:52:49.232Z,8.23
2018-08-13T21:55:18.151Z,7.87
2018-08-13T21:57:47.148Z,8.43
2018-08-13T22:00:36.097Z,8.63
2018-08-13T22:03:06.450Z,8.83
2018-08-13T22:05:35.480Z,8.70
2018-08-13T22:08:04.356Z,9.17
2018-08-13T22:10:33.308Z,9.97
2018-08-13T22:13:02.404Z,9.23
2018-08-13T22:15:32.902Z,9.80
2018-08-13T22:18:03.206Z,10.30
2018-08-13T22:20:33.280Z,9.33
2018-08-13T22:23:02.806Z,10.20
2018-08-13T22:25:37.359Z,9.03
2018-08-13T22:28:06.809Z,9.40
2018-08-13T22:30:36.046Z,9.33
2018-08-13T22:33:05.788Z,8.37
2018-08-13T22:35:35.675Z,9.07
2018-08-13T22:38:04.770Z,9.13
2018-08-13T22:40:33.549Z,9.40
2018-08-13T22:43:02.563Z,8.63
2018-08-13T22:45:31.931Z,9.23
2018-08-13T22:48:00.907Z,8.97
2018-08-13T22:50:29.935Z,8.87
2018-08-13T22:52:59.806Z,8.47
2018-08-13T22:55:29.604Z,8.80
2018-08-13T22:57:58.429Z,8.70
2018-08-13T23:00:27.202Z,8.67
2018-08-13T23:02:57.043Z,8.23
2018-08-13T23:05:27.039Z,8.27
2018-08-13T23:07:55.916Z,9.97
2018-08-13T23:10:26.147Z,8.53
2018-08-13T23:12:56.561Z,8.20
2018-08-13T23:15:25.724Z,8.20
2018-08-13T23:17:55.019Z,8.23
2018-08-13T23:20:27.196Z,8.63
2018-08-13T23:22:58.052Z,9.43
2018-08-13T23:25:29.183Z,9.43
2018-08-13T23:27:58.886Z,8.93
2018-08-13T23:30:27.802Z,9.37
2018-08-13T23:32:57.474Z,9.60
2018-08-13T23:35:27.155Z,9.60
2018-08-13T23:37:56.189Z,9.30
2018-08-13T23:40:25.777Z,9.70
2018-08-13T23:42:54.911Z,10.87
2018-08-13T23:45:25.225Z,10.97
2018-08-13T23:47:54.372Z,10.23
2018-08-13T23:50:24.505Z,10.73
2018-08-13T23:52:55.324Z,10.07
2018-08-13T23:55:30.253Z,10.40
2018-08-13T23:57:59.447Z,10.53
